Time;durP1;ratioP1;P1;durP2;ratioP2;P2;SDS_P1;SDS_P2;PMS_P1;PMS_P2;Temp;Humidity;BMP_temperature;BMP_pressure;BME280_temperature;BME280_humidity;BME280_pressure;Samples;Min_cycle;Max_cycle;Signal;HPM_P1;HPM_P2
2023/03/31 00:00:11;;;;;;;6.10;1.50;;;;;;;;;;5011590;28;20102;-80
2023/03/31 00:02:40;;;;;;;4.68;1.50;;;;;;;;;;4992057;28;20410;-81
2023/03/31 00:05:07;;;;;;;4.60;1.63;;;;;;;;;;5008708;28;20027;-81
2023/03/31 00:07:32;;;;;;;5.88;1.40;;;;;;;;;;4997454;28;20421;-82
2023/03/31 00:10:00;;;;;;;6.00;2.05;;;;;;;;;;4995729;28;20033;-81
2023/03/31 00:12:26;;;;;;;5.60;1.50;;;;;;;;;;5012927;28;20017;-81
2023/03/31 00:14:51;;;;;;;8.43;1.80;;;;;;;;;;5009182;28;20445;-80
2023/03/31 00:17:17;;;;;;;6.05;1.70;;;;;;;;;;4996680;28;20371;-81
2023/03/31 00:19:42;;;;;;;4.00;1.40;;;;;;;;;;5011385;28;20025;-81
2023/03/31 00:22:08;;;;;;;4.90;1.65;;;;;;;;;;5009753;28;20478;-80
2023/03/31 00:24:34;;;;;;;5.97;1.40;;;;;;;;;;5010966;28;20394;-80
2023/03/31 00:27:01;;;;;;;5.45;1.40;;;;;;;;;;4995059;28;20026;-81
2023/03/31 00:29:26;;;;;;;4.57;1.30;;;;;;;;;;4993447;28;20034;-82
2023/03/31 00:31:52;;;;;;;6.18;1.65;;;;;;;;;;4994859;28;20053;-81
2023/03/31 00:34:17;;;;;;;7.15;1.60;;;;;;;;;;4994041;28;20034;-80
2023/03/31 00:36:48;;;;;;;6.85;1.40;;;;;;;;;;5006515;28;20053;-80
2023/03/31 00:39:17;;;;;;;4.43;1.50;;;;;;;;;;4992794;28;20026;-81
2023/03/31 00:41:43;;;;;;;5.53;1.50;;;;;;;;;;5010056;28;20466;-80
2023/03/31 00:44:17;;;;;;;6.35;1.75;;;;;;;;;;4989426;28;20153;-81
2023/03/31 00:46:52;;;;;;;5.03;1.42;;;;;;;;;;4992347;28;20112;-81
2023/03/31 00:49:24;;;;;;;6.30;1.50;;;;;;;;;;4992929;28;20026;-81
2023/03/31 00:51:52;;;;;;;4.75;1.30;;;;;;;;;;4987465;28;20120;-81
2023/03/31 00:54:20;;;;;;;4.15;1.30;;;;;;;;;;5007562;28;20551;-81
2023/03/31 00:56:47;;;;;;;3.17;1.10;;;;;;;;;;5007864;28;20031;-81
2023/03/31 00:59:14;;;;;;;4.32;1.35;;;;;;;;;;4993172;28;20072;-80
2023/03/31 01:01:43;;;;;;;4.93;1.50;;;;;;;;;;4987337;28;20498;-80
2023/03/31 01:04:11;;;;;;;5.80;1.30;;;;;;;;;;5008924;28;20026;-81
2023/03/31 01:06:49;;;;;;;4.95;1.60;;;;;;;;;;5008228;28;20393;-79
2023/03/31 01:09:15;;;;;;;3.92;1.50;;;;;;;;;;5007454;28;20048;-81
2023/03/31 01:11:43;;;;;;;3.80;1.30;;;;;;;;;;5006360;28;20041;-80
2023/03/31 01:14:09;;;;;;;4.95;1.70;;;;;;;;;;5010324;28;20026;-81
2023/03/31 01:16:34;;;;;;;5.80;1.60;;;;;;;;;;4992830;28;20029;-80
2023/03/31 01:19:00;;;;;;;5.35;1.42;;;;;;;;;;4988275;28;20555;-81
2023/03/31 01:21:41;;;;;;;7.57;2.15;;;;;;;;;;5008971;28;20040;-81
2023/03/31 01:24:25;;;;;;;3.53;1.27;;;;;;;;;;5007453;28;20022;-81
2023/03/31 01:27:24;;;;;;;4.55;1.42;;;;;;;;;;5005583;28;20494;-80
2023/03/31 01:30:12;;;;;;;5.18;1.45;;;;;;;;;;4989324;28;20474;-81
2023/03/31 01:33:07;;;;;;;5.40;1.48;;;;;;;;;;5008152;28;20045;-81
2023/03/31 01:36:07;;;;;;;4.22;1.42;;;;;;;;;;5005929;28;20037;-81
2023/03/31 01:38:32;;;;;;;2.72;1.40;;;;;;;;;;5007799;28;20032;-81
2023/03/31 01:41:16;;;;;;;5.05;1.27;;;;;;;;;;5009182;28;20018;-81
2023/03/31 01:43:49;;;;;;;8.57;1.83;;;;;;;;;;5010481;28;20078;-81
2023/03/31 01:46:14;;;;;;;4.97;1.33;;;;;;;;;;5006711;28;21928;-81
2023/03/31 01:48:52;;;;;;;3.92;1.60;;;;;;;;;;4992957;28;20033;-81
2023/03/31 01:51:27;;;;;;;5.05;1.15;;;;;;;;;;4986620;28;20052;-81
2023/03/31 01:54:17;;;;;;;4.22;1.20;;;;;;;;;;5003987;28;20040;-80
2023/03/31 01:56:57;;;;;;;4.80;1.20;;;;;;;;;;5006667;28;20582;-82
2023/03/31 01:59:28;;;;;;;3.22;1.20;;;;;;;;;;5009856;28;20025;-81
2023/03/31 02:02:01;;;;;;;5.22;1.30;;;;;;;;;;5010612;28;20022;-81
2023/03/31 02:04:57;;;;;;;8.45;1.80;;;;;;;;;;5006076;28;20030;-81
2023/03/31 02:07:28;;;;;;;6.60;1.52;;;;;;;;;;4991562;28;20038;-80
2023/03/31 02:10:00;;;;;;;4.25;1.30;;;;;;;;;;5006042;28;20121;-81
2023/03/31 02:12:30;;;;;;;5.80;1.40;;;;;;;;;;4988361;28;20026;-78
2023/03/31 02:14:59;;;;;;;5.13;1.30;;;;;;;;;;5007761;28;20069;-80
2023/03/31 02:17:31;;;;;;;7.40;1.38;;;;;;;;;;4989660;28;20117;-81
2023/03/31 02:20:00;;;;;;;5.15;1.38;;;;;;;;;;4990886;28;20038;-81
2023/03/31 02:22:32;;;;;;;3.33;1.20;;;;;;;;;;5010071;28;20030;-80
2023/03/31 02:25:00;;;;;;;4.20;1.08;;;;;;;;;;5011862;28;20037;-81
2023/03/31 02:27:32;;;;;;;4.50;1.60;;;;;;;;;;4992844;28;20137;-81
2023/03/31 02:29:58;;;;;;;7.90;1.60;;;;;;;;;;5011361;28;20058;-81
2023/03/31 02:32:31;;;;;;;9.18;1.50;;;;;;;;;;5010756;28;20036;-81
2023/03/31 02:34:56;;;;;;;3.58;1.15;;;;;;;;;;5013008;28;20029;-81
2023/03/31 02:37:23;;;;;;;5.32;1.55;;;;;;;;;;5011997;28;20042;-81
2023/03/31 02:39:51;;;;;;;6.10;1.40;;;;;;;;;;4993257;28;20037;-79
2023/03/31 02:42:17;;;;;;;5.18;1.08;;;;;;;;;;5009676;28;20025;-81
2023/03/31 02:44:42;;;;;;;6.78;1.35;;;;;;;;;;5011787;28;20053;-81
2023/03/31 02:47:12;;;;;;;3.58;0.90;;;;;;;;;;5011914;28;20088;-80
2023/03/31 02:49:43;;;;;;;4.75;1.00;;;;;;;;;;5011904;28;20053;-80
2023/03/31 02:52:27;;;;;;;4.90;1.00;;;;;;;;;;5008593;28;20026;-81
2023/03/31 02:55:11;;;;;;;;;;;;;;;;;;5010947;28;20088;-80
2023/03/31 02:58:12;;;;;;;5.03;1.02;;;;;;;;;;5013318;28;19917;-81
2023/03/31 03:01:27;;;;;;;6.13;1.42;;;;;;;;;;5012362;28;20026;-80
2023/03/31 03:04:32;;;;;;;4.10;0.98;;;;;;;;;;4913297;29;20051;-80
2023/03/31 03:07:01;;;;;;;3.17;0.65;;;;;;;;;;4915401;29;20059;-79
2023/03/31 03:09:57;;;;;;;3.75;0.90;;;;;;;;;;4976733;28;20066;-80
2023/03/31 03:12:41;;;;;;;4.15;0.95;;;;;;;;;;5013063;28;20497;-80
2023/03/31 03:15:12;;;;;;;1.77;0.68;;;;;;;;;;5015336;28;20033;-80
2023/03/31 03:17:43;;;;;;;5.85;1.27;;;;;;;;;;5015284;28;20037;-80
2023/03/31 03:20:10;;;;;;;5.55;1.23;;;;;;;;;;5015036;28;20385;-80
2023/03/31 03:22:37;;;;;;;2.75;0.73;;;;;;;;;;5011822;28;20030;-81
2023/03/31 03:25:04;;;;;;;5.22;0.98;;;;;;;;;;4994394;28;20117;-81
2023/03/31 03:27:31;;;;;;;5.40;1.02;;;;;;;;;;5010439;28;20026;-80
2023/03/31 03:29:57;;;;;;;3.55;0.77;;;;;;;;;;5012101;28;20037;-80
2023/03/31 03:32:22;;;;;;;3.50;1.02;;;;;;;;;;4995013;28;20029;-80
2023/03/31 03:34:47;;;;;;;4.20;1.00;;;;;;;;;;5013487;28;20038;-81
2023/03/31 03:37:13;;;;;;;4.55;1.10;;;;;;;;;;5013457;28;20034;-81
2023/03/31 03:39:38;;;;;;;3.50;1.00;;;;;;;;;;5013360;28;20508;-80
2023/03/31 03:42:04;;;;;;;3.95;0.95;;;;;;;;;;4994489;28;20033;-80
2023/03/31 03:44:29;;;;;;;5.47;1.30;;;;;;;;;;5005990;28;20054;-81
2023/03/31 03:46:55;;;;;;;4.05;0.90;;;;;;;;;;4989174;28;20025;-80
2023/03/31 03:49:20;;;;;;;4.50;1.10;;;;;;;;;;5012579;28;20116;-79
2023/03/31 03:51:46;;;;;;;7.13;1.52;;;;;;;;;;5010957;28;20026;-80
2023/03/31 03:54:11;;;;;;;5.60;1.60;;;;;;;;;;4995830;28;20108;-80
2023/03/31 03:56:37;;;;;;;5.65;1.92;;;;;;;;;;4994309;28;20081;-77
2023/03/31 03:59:02;;;;;;;4.13;1.52;;;;;;;;;;5013485;28;20026;-80
2023/03/31 04:01:28;;;;;;;6.43;1.80;;;;;;;;;;5011023;28;20455;-80
2023/03/31 04:03:53;;;;;;;5.93;1.70;;;;;;;;;;5012253;28;20113;-80
2023/03/31 04:06:19;;;;;;;5.93;1.45;;;;;;;;;;4993337;28;20030;-80
2023/03/31 04:08:44;;;;;;;6.05;1.92;;;;;;;;;;5014953;28;20218;-80
2023/03/31 04:11:17;;;;;;;9.93;1.60;;;;;;;;;;4995984;28;20030;-80
2023/03/31 04:13:46;;;;;;;4.25;1.35;;;;;;;;;;4995860;28;20505;-78
2023/03/31 04:16:12;;;;;;;7.40;2.00;;;;;;;;;;5010747;28;20394;-80
2023/03/31 04:18:41;;;;;;;6.30;1.30;;;;;;;;;;4995830;28;20033;-79
2023/03/31 04:21:11;;;;;;;8.07;1.60;;;;;;;;;;4997067;28;20045;-80
2023/03/31 04:23:41;;;;;;;6.82;1.35;;;;;;;;;;4995618;28;20030;-79
2023/03/31 04:26:10;;;;;;;6.05;1.30;;;;;;;;;;5004033;28;20033;-79
2023/03/31 04:28:36;;;;;;;5.40;1.00;;;;;;;;;;5012920;28;20033;-79
2023/03/31 04:31:02;;;;;;;4.25;0.90;;;;;;;;;;5009137;28;20084;-80
2023/03/31 04:33:28;;;;;;;5.43;1.30;;;;;;;;;;5014228;28;20160;-78
2023/03/31 04:35:53;;;;;;;4.15;1.17;;;;;;;;;;5011855;28;20561;-79
2023/03/31 04:38:21;;;;;;;7.03;0.93;;;;;;;;;;5010412;28;20148;-79
2023/03/31 04:40:49;;;;;;;7.68;1.27;;;;;;;;;;5012706;28;20482;-79
2023/03/31 04:43:16;;;;;;;2.67;0.63;;;;;;;;;;4989813;28;20026;-80
2023/03/31 04:45:42;;;;;;;5.88;1.10;;;;;;;;;;4994952;28;20022;-79
2023/03/31 04:48:07;;;;;;;5.43;1.10;;;;;;;;;;5011345;28;20053;-78
2023/03/31 04:50:33;;;;;;;4.15;1.20;;;;;;;;;;5007136;28;20030;-79
2023/03/31 04:52:59;;;;;;;6.63;1.20;;;;;;;;;;5013168;28;20025;-79
2023/03/31 04:55:24;;;;;;;3.63;0.70;;;;;;;;;;5010054;28;20049;-79
2023/03/31 04:57:50;;;;;;;5.00;1.30;;;;;;;;;;4987904;28;20068;-79
2023/03/31 05:00:16;;;;;;;3.33;0.93;;;;;;;;;;5008340;28;20497;-79
2023/03/31 05:02:42;;;;;;;3.03;0.80;;;;;;;;;;5008338;28;20025;-79
2023/03/31 05:05:09;;;;;;;8.43;0.95;;;;;;;;;;4991405;28;20546;-79
2023/03/31 05:07:34;;;;;;;3.22;0.82;;;;;;;;;;4993120;28;20394;-79
2023/03/31 05:10:00;;;;;;;3.70;0.80;;;;;;;;;;5011342;28;20030;-79
2023/03/31 05:12:25;;;;;;;3.63;0.95;;;;;;;;;;4993855;28;20499;-79
2023/03/31 05:14:50;;;;;;;5.10;1.08;;;;;;;;;;5008112;28;20030;-80
2023/03/31 05:17:16;;;;;;;3.03;0.80;;;;;;;;;;5011599;28;20532;-79
2023/03/31 05:19:42;;;;;;;3.95;0.95;;;;;;;;;;5012715;28;20034;-79
2023/03/31 05:22:08;;;;;;;4.72;1.05;;;;;;;;;;4993921;28;20057;-78
2023/03/31 05:24:33;;;;;;;5.57;1.17;;;;;;;;;;5006263;28;20033;-79
2023/03/31 05:26:58;;;;;;;8.20;0.90;;;;;;;;;;5006030;28;20516;-78
2023/03/31 05:29:24;;;;;;;3.13;1.00;;;;;;;;;;5010310;28;20107;-79
2023/03/31 05:31:49;;;;;;;3.88;0.98;;;;;;;;;;5011971;28;20021;-79
2023/03/31 05:34:15;;;;;;;4.25;1.50;;;;;;;;;;5003958;28;20077;-79
2023/03/31 05:36:42;;;;;;;2.65;0.88;;;;;;;;;;5009611;28;20100;-79
2023/03/31 05:39:08;;;;;;;7.00;1.30;;;;;;;;;;4992619;28;20022;-79
2023/03/31 05:41:33;;;;;;;5.40;1.02;;;;;;;;;;5012710;28;20535;-79
2023/03/31 05:43:59;;;;;;;5.10;1.10;;;;;;;;;;5007044;28;20030;-79
2023/03/31 05:46:25;;;;;;;4.25;1.23;;;;;;;;;;5006263;28;20038;-79
2023/03/31 05:48:51;;;;;;;5.88;0.90;;;;;;;;;;5009310;28;20022;-80
2023/03/31 05:51:16;;;;;;;3.20;1.00;;;;;;;;;;5011195;28;20038;-79
2023/03/31 05:53:41;;;;;;;4.13;0.85;;;;;;;;;;4996130;28;20025;-77
2023/03/31 05:56:07;;;;;;;3.97;0.90;;;;;;;;;;4995201;28;20104;-79
2023/03/31 05:58:36;;;;;;;4.93;1.23;;;;;;;;;;5014351;28;20041;-79
2023/03/31 06:01:06;;;;;;;3.97;0.80;;;;;;;;;;5002146;28;20363;-79
2023/03/31 06:03:37;;;;;;;4.18;1.30;;;;;;;;;;5002120;28;20038;-80
2023/03/31 06:06:07;;;;;;;3.90;0.82;;;;;;;;;;4998594;28;20120;-79
2023/03/31 06:08:33;;;;;;;3.20;0.50;;;;;;;;;;4994804;28;20057;-80
2023/03/31 06:10:59;;;;;;;6.25;0.80;;;;;;;;;;4995046;28;20050;-79
2023/03/31 06:13:24;;;;;;;2.70;0.70;;;;;;;;;;5000226;28;20080;-79
2023/03/31 06:15:57;;;;;;;3.05;0.63;;;;;;;;;;5011823;28;20029;-80
2023/03/31 06:18:22;;;;;;;3.63;0.70;;;;;;;;;;5018104;28;20482;-79
2023/03/31 06:20:49;;;;;;;2.60;0.90;;;;;;;;;;5020042;28;20033;-79
2023/03/31 06:23:14;;;;;;;2.78;0.80;;;;;;;;;;5021420;28;20038;-80
2023/03/31 06:25:40;;;;;;;3.05;0.70;;;;;;;;;;5017593;28;20548;-80
2023/03/31 06:28:06;;;;;;;2.65;0.47;;;;;;;;;;5014442;28;20393;-80
2023/03/31 06:30:32;;;;;;;1.08;0.50;;;;;;;;;;5018192;28;20029;-80
2023/03/31 06:32:57;;;;;;;2.63;0.70;;;;;;;;;;5017872;28;20045;-80
2023/03/31 06:35:22;;;;;;;4.38;0.65;;;;;;;;;;5004994;28;20401;-80
2023/03/31 06:37:48;;;;;;;2.63;0.75;;;;;;;;;;5019625;28;20030;-80
2023/03/31 06:40:13;;;;;;;3.05;0.70;;;;;;;;;;5002474;28;20022;-80
2023/03/31 06:42:39;;;;;;;1.85;0.52;;;;;;;;;;5015691;28;20032;-79
2023/03/31 06:45:04;;;;;;;2.58;0.63;;;;;;;;;;4995149;28;20030;-80
2023/03/31 06:47:30;;;;;;;2.10;0.68;;;;;;;;;;4980425;28;20036;-80
2023/03/31 06:49:55;;;;;;;3.35;0.73;;;;;;;;;;5017927;28;20385;-80
2023/03/31 06:52:20;;;;;;;2.45;0.60;;;;;;;;;;4998019;28;20442;-80
2023/03/31 06:54:46;;;;;;;3.65;0.80;;;;;;;;;;5010885;28;20481;-80
2023/03/31 06:57:11;;;;;;;2.58;0.63;;;;;;;;;;5013083;28;20091;-80
2023/03/31 06:59:37;;;;;;;2.25;0.73;;;;;;;;;;5011866;28;20048;-79
2023/03/31 07:02:02;;;;;;;3.28;0.88;;;;;;;;;;4996753;28;20436;-80
2023/03/31 07:04:28;;;;;;;3.53;0.90;;;;;;;;;;5018355;28;20381;-80
2023/03/31 07:06:53;;;;;;;4.60;0.80;;;;;;;;;;4997920;28;20050;-80
2023/03/31 07:09:22;;;;;;;2.22;0.80;;;;;;;;;;4988915;28;20038;-80
2023/03/31 07:11:47;;;;;;;3.63;0.80;;;;;;;;;;4993402;28;20029;-80
2023/03/31 07:14:12;;;;;;;2.80;0.90;;;;;;;;;;4993410;28;20038;-80
2023/03/31 07:16:38;;;;;;;2.97;0.77;;;;;;;;;;5019270;28;20034;-80
2023/03/31 07:19:04;;;;;;;2.33;0.60;;;;;;;;;;4996210;28;20022;-80
2023/03/31 07:21:30;;;;;;;3.55;0.85;;;;;;;;;;4996754;28;20026;-80
2023/03/31 07:23:56;;;;;;;2.15;0.70;;;;;;;;;;4993943;28;20501;-80
2023/03/31 07:26:21;;;;;;;2.55;0.70;;;;;;;;;;4996063;28;20500;-80
2023/03/31 07:28:46;;;;;;;2.85;0.70;;;;;;;;;;5007844;28;20076;-80
2023/03/31 07:31:13;;;;;;;2.13;0.65;;;;;;;;;;4994185;28;20038;-80
2023/03/31 07:33:39;;;;;;;4.07;1.05;;;;;;;;;;5007335;28;20483;-80
2023/03/31 07:36:06;;;;;;;3.63;0.80;;;;;;;;;;4994069;28;20485;-80
2023/03/31 07:38:31;;;;;;;1.85;0.60;;;;;;;;;;4989743;28;20030;-80
2023/03/31 07:40:57;;;;;;;3.63;0.73;;;;;;;;;;5011200;28;20709;-80
2023/03/31 07:43:22;;;;;;;2.78;0.60;;;;;;;;;;5013152;28;20030;-80
2023/03/31 07:45:48;;;;;;;2.83;0.90;;;;;;;;;;5012998;28;20041;-80
2023/03/31 07:48:13;;;;;;;4.20;0.88;;;;;;;;;;5012983;28;20033;-80
2023/03/31 07:50:38;;;;;;;3.33;0.70;;;;;;;;;;4993367;28;20367;-80
2023/03/31 07:53:04;;;;;;;3.25;1.00;;;;;;;;;;5004347;28;20095;-80
2023/03/31 07:55:29;;;;;;;8.45;1.77;;;;;;;;;;4994317;28;20038;-80
2023/03/31 07:57:55;;;;;;;3.42;1.35;;;;;;;;;;4993842;28;20120;-80
2023/03/31 08:00:21;;;;;;;3.60;1.17;;;;;;;;;;4991331;28;20022;-80
2023/03/31 08:02:46;;;;;;;3.30;0.90;;;;;;;;;;4989250;28;20033;-80
2023/03/31 08:05:14;;;;;;;4.72;1.10;;;;;;;;;;4995878;28;20033;-80
2023/03/31 08:07:43;;;;;;;4.80;1.50;;;;;;;;;;5010224;28;20104;-80
2023/03/31 08:10:14;;;;;;;5.68;1.40;;;;;;;;;;4994846;28;20105;-80
2023/03/31 08:12:40;;;;;;;3.28;1.30;;;;;;;;;;5013928;28;20401;-80
2023/03/31 08:15:06;;;;;;;4.70;1.40;;;;;;;;;;4989754;28;20112;-80
2023/03/31 08:17:32;;;;;;;5.75;1.45;;;;;;;;;;4991445;28;20034;-80
2023/03/31 08:19:57;;;;;;;5.57;1.38;;;;;;;;;;4993120;28;20496;-80
2023/03/31 08:22:23;;;;;;;4.38;1.25;;;;;;;;;;4993221;28;20037;-80
2023/03/31 08:24:48;;;;;;;4.38;1.40;;;;;;;;;;5010099;28;20022;-80
2023/03/31 08:27:14;;;;;;;6.22;1.50;;;;;;;;;;4999338;28;20029;-80
2023/03/31 08:29:40;;;;;;;6.68;1.55;;;;;;;;;;5009810;28;20049;-78
2023/03/31 08:32:06;;;;;;;5.30;1.38;;;;;;;;;;4994149;28;20080;-80
2023/03/31 08:34:31;;;;;;;7.95;2.42;;;;;;;;;;4989482;28;20073;-80
2023/03/31 08:36:56;;;;;;;6.57;1.45;;;;;;;;;;5008938;28;20064;-80
2023/03/31 08:39:22;;;;;;;7.85;2.22;;;;;;;;;;4992160;28;20033;-79
2023/03/31 08:42:00;;;;;;;10.15;2.20;;;;;;;;;;4990118;28;20482;-79
2023/03/31 08:44:37;;;;;;;7.35;1.90;;;;;;;;;;5005216;28;20044;-80
2023/03/31 08:47:06;;;;;;;6.80;1.85;;;;;;;;;;5007816;28;20091;-80
2023/03/31 08:49:42;;;;;;;10.77;1.80;;;;;;;;;;4981214;28;20037;-80
2023/03/31 08:52:13;;;;;;;6.70;1.60;;;;;;;;;;5002578;28;20045;-80
2023/03/31 08:55:05;;;;;;;7.93;2.10;;;;;;;;;;5006464;28;20029;-80
2023/03/31 08:57:56;;;;;;;7.50;1.70;;;;;;;;;;4995163;28;20414;-79
2023/03/31 09:00:22;;;;;;;8.10;1.65;;;;;;;;;;4995211;28;20080;-81
2023/03/31 09:03:10;;;;;;;6.40;1.90;;;;;;;;;;4989275;28;20452;-80
2023/03/31 09:05:57;;;;;;;8.60;1.92;;;;;;;;;;5002120;28;20121;-80
2023/03/31 09:08:26;;;;;;;12.02;2.53;;;;;;;;;;4993908;28;20022;-79
2023/03/31 09:10:56;;;;;;;8.30;2.20;;;;;;;;;;5011654;28;20040;-80
2023/03/31 09:14:04;;;;;;;9.45;1.80;;;;;;;;;;5009629;28;20117;-80
2023/03/31 09:16:38;;;;;;;10.45;1.95;;;;;;;;;;5008611;28;20084;-80
2023/03/31 09:19:14;;;;;;;11.60;2.08;;;;;;;;;;4981757;28;20030;-80
2023/03/31 09:21:43;;;;;;;10.02;2.00;;;;;;;;;;5007423;28;20113;-80
2023/03/31 09:24:19;;;;;;;10.85;2.28;;;;;;;;;;5010208;28;20021;-81
2023/03/31 09:27:00;;;;;;;6.53;1.75;;;;;;;;;;5005438;28;20044;-80
2023/03/31 09:29:46;;;;;;;12.35;2.90;;;;;;;;;;4993423;28;20065;-80
2023/03/31 09:32:25;;;;;;;10.88;2.75;;;;;;;;;;5010747;28;20033;-80
2023/03/31 09:34:56;;;;;;;8.18;1.83;;;;;;;;;;5012349;28;20727;-80
2023/03/31 09:37:23;;;;;;;8.30;1.80;;;;;;;;;;5006964;28;20037;-80
2023/03/31 09:39:49;;;;;;;8.77;2.22;;;;;;;;;;4993665;28;20045;-80
2023/03/31 09:42:14;;;;;;;8.65;2.08;;;;;;;;;;5007189;28;20132;-78
2023/03/31 09:44:43;;;;;;;12.90;2.65;;;;;;;;;;5010896;28;20088;-80
2023/03/31 09:47:20;;;;;;;8.48;1.75;;;;;;;;;;5007168;28;20033;-79
2023/03/31 09:49:46;;;;;;;10.23;1.50;;;;;;;;;;4992261;28;20058;-80
2023/03/31 09:52:24;;;;;;;11.95;1.92;;;;;;;;;;5005860;28;20057;-79
2023/03/31 09:54:53;;;;;;;6.72;1.77;;;;;;;;;;4985514;28;20375;-80
2023/03/31 09:57:34;;;;;;;9.75;1.55;;;;;;;;;;4999327;28;20025;-80
2023/03/31 10:00:15;;;;;;;6.32;1.20;;;;;;;;;;4991192;28;20497;-80
2023/03/31 10:02:47;;;;;;;7.75;2.03;;;;;;;;;;5004735;28;20029;-80
2023/03/31 10:05:28;;;;;;;7.03;1.30;;;;;;;;;;4991930;28;20486;-80
2023/03/31 10:08:17;;;;;;;7.32;1.42;;;;;;;;;;5009577;28;20029;-80
2023/03/31 10:10:50;;;;;;;6.60;1.52;;;;;;;;;;5004331;28;20026;-79
2023/03/31 10:13:18;;;;;;;7.88;1.52;;;;;;;;;;4987963;28;20045;-79
2023/03/31 10:15:44;;;;;;;9.73;2.10;;;;;;;;;;5006636;28;20034;-80
2023/03/31 10:18:18;;;;;;;6.53;1.30;;;;;;;;;;4994255;28;20033;-80
2023/03/31 10:20:48;;;;;;;7.57;1.55;;;;;;;;;;5006176;28;20029;-80
2023/03/31 10:23:15;;;;;;;6.47;2.08;;;;;;;;;;5008106;28;20065;-80
2023/03/31 10:25:42;;;;;;;6.05;1.60;;;;;;;;;;4993949;28;20053;-80
2023/03/31 10:28:11;;;;;;;6.50;2.28;;;;;;;;;;4989356;28;20038;-79
2023/03/31 10:30:39;;;;;;;9.23;1.73;;;;;;;;;;5007422;28;20054;-80
2023/03/31 10:33:10;;;;;;;7.88;1.40;;;;;;;;;;5003381;28;20026;-80
2023/03/31 10:35:36;;;;;;;6.88;1.30;;;;;;;;;;4986778;28;20037;-80
2023/03/31 10:38:06;;;;;;;9.63;1.45;;;;;;;;;;5010033;28;20026;-80
2023/03/31 10:40:34;;;;;;;6.25;1.27;;;;;;;;;;4991902;28;20048;-80
2023/03/31 10:43:16;;;;;;;6.13;1.33;;;;;;;;;;5010892;28;20033;-80
2023/03/31 10:45:46;;;;;;;4.93;1.30;;;;;;;;;;5008595;28;20105;-80
2023/03/31 10:48:29;;;;;;;5.55;1.10;;;;;;;;;;5011779;28;20034;-81
2023/03/31 10:51:25;;;;;;;6.85;1.13;;;;;;;;;;4994761;28;20048;-81
2023/03/31 10:53:53;;;;;;;6.20;1.17;;;;;;;;;;5006077;28;20129;-79
2023/03/31 10:56:42;;;;;;;7.38;1.90;;;;;;;;;;5006481;28;20022;-80
2023/03/31 10:59:22;;;;;;;5.57;1.10;;;;;;;;;;5003215;28;20049;-80
2023/03/31 11:02:26;;;;;;;7.90;1.38;;;;;;;;;;5005274;28;20081;-80
2023/03/31 11:04:54;;;;;;;6.05;1.25;;;;;;;;;;4986024;28;20157;-79
2023/03/31 11:07:42;;;;;;;7.20;1.33;;;;;;;;;;4993243;28;20124;-80
2023/03/31 11:10:28;;;;;;;6.32;1.27;;;;;;;;;;5009170;28;20041;-80
2023/03/31 11:13:10;;;;;;;4.63;1.33;;;;;;;;;;5011328;28;20036;-79
2023/03/31 11:16:04;;;;;;;6.97;1.27;;;;;;;;;;5014630;28;20025;-80
2023/03/31 11:18:38;;;;;;;8.00;1.50;;;;;;;;;;4997857;28;20037;-80
2023/03/31 11:21:22;;;;;;;5.72;1.23;;;;;;;;;;5011870;28;20034;-80
2023/03/31 11:23:56;;;;;;;8.73;1.45;;;;;;;;;;4996867;28;20036;-80
2023/03/31 11:26:50;;;;;;;6.28;1.30;;;;;;;;;;5007301;28;20030;-80
2023/03/31 11:29:34;;;;;;;7.25;1.48;;;;;;;;;;5007196;28;20364;-80
2023/03/31 11:32:15;;;;;;;6.53;1.20;;;;;;;;;;4990808;28;20117;-80
2023/03/31 11:34:56;;;;;;;7.80;1.58;;;;;;;;;;4986033;28;20079;-79
2023/03/31 11:37:40;;;;;;;6.38;1.00;;;;;;;;;;5012613;28;20026;-80
2023/03/31 11:40:31;;;;;;;6.43;1.15;;;;;;;;;;5009957;28;20029;-80
2023/03/31 11:43:10;;;;;;;8.80;1.30;;;;;;;;;;5007442;28;20041;-80
2023/03/31 11:45:45;;;;;;;5.40;1.05;;;;;;;;;;5010401;28;20029;-80
2023/03/31 11:48:36;;;;;;;6.82;1.30;;;;;;;;;;4995383;28;20029;-80
2023/03/31 11:51:06;;;;;;;6.78;1.20;;;;;;;;;;5012356;28;20419;-80
2023/03/31 11:53:35;;;;;;;6.50;1.05;;;;;;;;;;5013297;28;20548;-81
2023/03/31 11:56:03;;;;;;;6.97;1.30;;;;;;;;;;5013662;28;20025;-80
2023/03/31 11:58:37;;;;;;;5.88;1.33;;;;;;;;;;5011118;28;20030;-80
2023/03/31 12:01:16;;;;;;;5.20;1.23;;;;;;;;;;4989288;28;20072;-80
2023/03/31 12:04:11;;;;;;;9.07;1.83;;;;;;;;;;5012243;28;20025;-80
2023/03/31 12:06:41;;;;;;;5.40;1.60;;;;;;;;;;5008151;28;20457;-80
2023/03/31 12:09:35;;;;;;;6.53;1.52;;;;;;;;;;4990166;28;20025;-80
2023/03/31 12:12:09;;;;;;;9.20;1.60;;;;;;;;;;4994504;28;20025;-79
2023/03/31 12:14:46;;;;;;;6.22;1.63;;;;;;;;;;5013735;28;20491;-79
2023/03/31 12:17:15;;;;;;;9.30;1.80;;;;;;;;;;5014435;28;20030;-80
2023/03/31 12:19:49;;;;;;;7.32;1.60;;;;;;;;;;4994669;28;20037;-80
2023/03/31 12:22:21;;;;;;;7.30;1.90;;;;;;;;;;4995086;28;20100;-80
2023/03/31 12:24:46;;;;;;;7.55;1.27;;;;;;;;;;5014484;28;20437;-80
2023/03/31 12:27:26;;;;;;;6.60;1.30;;;;;;;;;;5011437;28;20061;-79
2023/03/31 12:30:01;;;;;;;8.95;1.50;;;;;;;;;;5013505;28;20018;-80
2023/03/31 12:32:31;;;;;;;5.97;1.10;;;;;;;;;;5012114;28;20540;-80
2023/03/31 12:35:03;;;;;;;5.15;1.10;;;;;;;;;;5012559;28;20036;-80
2023/03/31 12:37:42;;;;;;;6.18;1.13;;;;;;;;;;5009651;28;20038;-80
2023/03/31 12:40:31;;;;;;;6.70;0.90;;;;;;;;;;4995662;28;20445;-80
2023/03/31 12:43:11;;;;;;;5.07;0.98;;;;;;;;;;5011266;28;20032;-80
2023/03/31 12:45:49;;;;;;;4.50;0.80;;;;;;;;;;4995018;28;20505;-79
2023/03/31 12:48:53;;;;;;;6.30;1.40;;;;;;;;;;4997374;28;20037;-80
2023/03/31 12:51:27;;;;;;;8.52;1.02;;;;;;;;;;4971828;28;20072;-80
2023/03/31 12:54:07;;;;;;;7.30;1.20;;;;;;;;;;4995647;28;20454;-80
2023/03/31 12:57:03;;;;;;;7.03;1.40;;;;;;;;;;4996041;28;20541;-80
2023/03/31 12:59:37;;;;;;;6.30;1.00;;;;;;;;;;4992191;28;20072;-80
2023/03/31 13:02:20;;;;;;;5.40;1.02;;;;;;;;;;4991628;28;20038;-80
2023/03/31 13:04:45;;;;;;;3.35;0.80;;;;;;;;;;5006948;28;20041;-79
2023/03/31 13:07:26;;;;;;;5.47;1.05;;;;;;;;;;5008142;28;20425;-80
2023/03/31 13:09:56;;;;;;;3.92;0.90;;;;;;;;;;4993126;28;20494;-79
2023/03/31 13:12:26;;;;;;;4.28;1.05;;;;;;;;;;5005441;28;20026;-80
2023/03/31 13:14:57;;;;;;;5.70;1.38;;;;;;;;;;4993206;28;20025;-79
2023/03/31 13:17:26;;;;;;;7.88;1.50;;;;;;;;;;5004465;28;20033;-78
2023/03/31 13:19:52;;;;;;;5.28;1.00;;;;;;;;;;4981124;28;20053;-80
2023/03/31 13:22:35;;;;;;;7.35;1.10;;;;;;;;;;5008031;28;20030;-79
2023/03/31 13:25:25;;;;;;;8.18;1.40;;;;;;;;;;4988238;28;20124;-79
2023/03/31 13:27:52;;;;;;;6.63;1.20;;;;;;;;;;4989899;28;20056;-80
2023/03/31 13:30:39;;;;;;;5.60;1.20;;;;;;;;;;4991032;28;20040;-79
2023/03/31 13:33:09;;;;;;;3.20;0.75;;;;;;;;;;4987023;28;21340;-79
2023/03/31 13:35:38;;;;;;;3.50;1.00;;;;;;;;;;5001533;28;20367;-78
2023/03/31 13:38:33;;;;;;;2.90;0.88;;;;;;;;;;4990059;28;20034;-79
2023/03/31 13:41:27;;;;;;;4.93;1.10;;;;;;;;;;5008902;28;20381;-79
2023/03/31 13:44:00;;;;;;;3.83;0.70;;;;;;;;;;5005717;28;20056;-79
2023/03/31 13:47:04;;;;;;;6.70;1.13;;;;;;;;;;5007466;28;20034;-79
2023/03/31 13:49:46;;;;;;;4.35;1.40;;;;;;;;;;5007861;28;20029;-79
2023/03/31 13:52:12;;;;;;;3.72;0.90;;;;;;;;;;4989015;28;20057;-79
2023/03/31 13:54:37;;;;;;;5.45;1.15;;;;;;;;;;4989214;28;20029;-79
2023/03/31 13:57:51;;;;;;;4.72;0.88;;;;;;;;;;5003081;28;20040;-79
2023/03/31 14:00:35;;;;;;;4.63;0.77;;;;;;;;;;4921316;28;20050;-78
2023/03/31 14:03:38;;;;;;;6.72;0.90;;;;;;;;;;4990197;28;20037;-79
2023/03/31 14:06:26;;;;;;;6.28;1.38;;;;;;;;;;5008703;28;20056;-79
2023/03/31 14:08:56;;;;;;;4.00;0.90;;;;;;;;;;5006308;28;20401;-79
2023/03/31 14:11:27;;;;;;;4.55;1.27;;;;;;;;;;4988814;28;20119;-79
2023/03/31 14:14:11;;;;;;;5.30;1.10;;;;;;;;;;4984643;28;20057;-79
2023/03/31 14:16:37;;;;;;;;;;;;;;;;;;5007333;28;20037;-79
2023/03/31 14:19:34;;;;;;;4.60;1.02;;;;;;;;;;5017445;28;19955;-79
2023/03/31 14:22:18;;;;;;;4.03;1.00;;;;;;;;;;5007323;28;20128;-79
2023/03/31 14:25:12;;;;;;;3.63;1.02;;;;;;;;;;5002191;28;20064;-79
2023/03/31 14:27:57;;;;;;;4.60;0.90;;;;;;;;;;4994069;28;20029;-79
2023/03/31 14:30:32;;;;;;;3.60;1.10;;;;;;;;;;4992755;28;20061;-79
2023/03/31 14:33:25;;;;;;;2.33;0.88;;;;;;;;;;5011760;28;20378;-79
2023/03/31 14:36:07;;;;;;;3.92;1.05;;;;;;;;;;4993600;28;20494;-80
2023/03/31 14:38:33;;;;;;;4.18;0.90;;;;;;;;;;5012795;28;20072;-79
2023/03/31 14:41:02;;;;;;;4.55;0.77;;;;;;;;;;5010387;28;20045;-79
2023/03/31 14:43:38;;;;;;;2.30;0.60;;;;;;;;;;4993862;28;20077;-79
2023/03/31 14:46:08;;;;;;;4.90;0.90;;;;;;;;;;4995391;28;20026;-79
2023/03/31 14:48:44;;;;;;;2.13;0.68;;;;;;;;;;5013998;28;20030;-79
2023/03/31 14:51:10;;;;;;;3.33;1.10;;;;;;;;;;5015872;28;20053;-79
2023/03/31 14:53:36;;;;;;;3.15;0.80;;;;;;;;;;4994125;28;20084;-80
2023/03/31 14:56:15;;;;;;;4.30;1.38;;;;;;;;;;4995226;28;20441;-79
2023/03/31 14:58:50;;;;;;;2.63;0.60;;;;;;;;;;5014003;28;20489;-79
2023/03/31 15:01:24;;;;;;;3.67;0.75;;;;;;;;;;4992721;28;20026;-79
2023/03/31 15:03:52;;;;;;;4.38;0.90;;;;;;;;;;4988594;28;21316;-80
2023/03/31 15:06:17;;;;;;;3.60;0.73;;;;;;;;;;5011487;28;20034;-79
2023/03/31 15:08:44;;;;;;;2.15;0.70;;;;;;;;;;5011418;28;20032;-80
2023/03/31 15:11:15;;;;;;;2.75;0.80;;;;;;;;;;4995085;28;20033;-80
2023/03/31 15:13:44;;;;;;;2.75;0.70;;;;;;;;;;5000889;28;20071;-80